Time;durP1;ratioP1;P1;durP2;ratioP2;P2;SDS_P1;SDS_P2;PMS_P1;PMS_P2;Temp;Humidity;BMP_temperature;BMP_pressure;BME280_temperature;BME280_humidity;BME280_pressure;Samples;Min_cycle;Max_cycle;Signal;HPM_P1;HPM_P2
2021/04/10 00:00:14;;;;;;;18.38;4.22;;;4.20;99.90;;;;;;5064829;28;20033;-68
2021/04/10 00:02:40;;;;;;;18.85;4.60;;;4.10;99.90;;;;;;5064997;28;20053;-67
2021/04/10 00:05:08;;;;;;;21.60;4.82;;;4.20;99.90;;;;;;5064883;28;20508;-67
2021/04/10 00:07:34;;;;;;;17.60;5.25;;;4.20;99.90;;;;;;5064712;28;20196;-68
2021/04/10 00:10:01;;;;;;;17.75;5.07;;;4.20;99.90;;;;;;5079640;28;20045;-68
2021/04/10 00:12:26;;;;;;;21.25;4.70;;;4.20;99.90;;;;;;5064784;28;20063;-67
2021/04/10 00:14:52;;;;;;;18.33;3.58;;;4.10;99.90;;;;;;5064838;28;20263;-67
2021/04/10 00:17:18;;;;;;;12.45;3.45;;;4.10;99.90;;;;;;5065316;28;20182;-68
2021/04/10 00:19:43;;;;;;;12.32;4.07;;;4.10;99.90;;;;;;5064487;28;20531;-67
2021/04/10 00:22:09;;;;;;;10.75;4.22;;;4.10;99.90;;;;;;5064734;28;20037;-68
2021/04/10 00:24:35;;;;;;;17.60;4.60;;;4.00;99.90;;;;;;5064059;28;20045;-67
2021/04/10 00:27:01;;;;;;;18.55;3.47;;;4.00;99.90;;;;;;5064658;28;20150;-67
2021/04/10 00:29:27;;;;;;;10.80;4.03;;;4.10;99.90;;;;;;5064562;28;20131;-68
2021/04/10 00:31:52;;;;;;;14.05;4.05;;;4.00;99.90;;;;;;5064310;28;20487;-68
2021/04/10 00:34:18;;;;;;;22.15;4.45;;;4.00;99.90;;;;;;5064537;28;20521;-68
2021/04/10 00:36:44;;;;;;;17.33;3.95;;;4.00;99.90;;;;;;5064531;28;20044;-68
2021/04/10 00:39:09;;;;;;;21.60;5.68;;;4.00;99.90;;;;;;5063358;28;20076;-68
2021/04/10 00:41:35;;;;;;;19.88;4.90;;;4.00;99.90;;;;;;5064270;28;20036;-67
2021/04/10 00:44:01;;;;;;;14.77;4.82;;;4.00;99.90;;;;;;5064106;28;20071;-67
2021/04/10 00:46:27;;;;;;;21.02;5.38;;;4.00;99.90;;;;;;5064241;28;20045;-68
2021/04/10 00:48:52;;;;;;;12.80;4.00;;;4.00;99.90;;;;;;5064321;28;20052;-67
2021/04/10 00:51:18;;;;;;;24.05;5.28;;;4.00;99.90;;;;;;5063805;28;20044;-67
2021/04/10 00:53:45;;;;;;;11.85;4.50;;;3.90;99.90;;;;;;5064244;28;20063;-67
2021/04/10 00:56:11;;;;;;;21.23;5.10;;;3.90;99.90;;;;;;5063217;28;20657;-68
2021/04/10 00:58:37;;;;;;;16.02;4.68;;;3.90;99.90;;;;;;5063221;28;20496;-67
2021/04/10 01:01:04;;;;;;;17.73;4.47;;;3.90;99.90;;;;;;5063811;28;20041;-68
2021/04/10 01:03:30;;;;;;;24.43;5.83;;;3.90;99.90;;;;;;5062061;28;20076;-68
2021/04/10 01:05:57;;;;;;;24.00;5.13;;;3.90;99.90;;;;;;5064070;28;20417;-67
2021/04/10 01:08:23;;;;;;;23.58;6.40;;;3.90;99.90;;;;;;5063592;28;20049;-66
2021/04/10 01:10:50;;;;;;;20.10;5.13;;;3.90;99.90;;;;;;5063274;28;20489;-68
2021/04/10 01:13:46;;;;;;;18.27;4.97;;;3.90;99.90;;;;;;5063562;28;20063;-68
2021/04/10 01:16:20;;;;;;;15.63;5.28;;;3.90;99.90;;;;;;5057116;28;20134;-67
2021/04/10 01:18:57;;;;;;;14.65;4.88;;;3.90;99.90;;;;;;5063724;28;20041;-68
2021/04/10 01:21:40;;;;;;;12.57;4.07;;;3.80;99.90;;;;;;5063332;28;20131;-67
2021/04/10 01:24:27;;;;;;;17.80;5.43;;;3.90;99.90;;;;;;5063201;28;20044;-67
2021/04/10 01:27:16;;;;;;;21.08;4.45;;;3.90;99.90;;;;;;5063583;28;20052;-67
2021/04/10 01:29:48;;;;;;;21.95;5.15;;;3.90;99.90;;;;;;5063191;28;20044;-67
2021/04/10 01:32:16;;;;;;;13.85;4.13;;;3.80;99.90;;;;;;5063619;28;20086;-66
2021/04/10 01:35:05;;;;;;;19.55;4.93;;;3.80;99.90;;;;;;5063554;28;20049;-66
2021/04/10 01:37:33;;;;;;;15.93;4.70;;;3.80;99.90;;;;;;5063359;28;20057;-67
2021/04/10 01:40:01;;;;;;;21.55;5.18;;;3.80;99.90;;;;;;5062682;28;20048;-67
2021/04/10 01:42:29;;;;;;;16.15;4.38;;;3.80;99.90;;;;;;5063396;28;20060;-67
2021/04/10 01:44:58;;;;;;;18.75;5.68;;;3.80;99.90;;;;;;5062213;28;20416;-68
2021/04/10 01:47:24;;;;;;;13.68;4.30;;;3.80;99.90;;;;;;5063124;28;20056;-67
2021/04/10 01:49:51;;;;;;;15.05;4.82;;;3.80;99.90;;;;;;5063061;28;20104;-67
2021/04/10 01:52:19;;;;;;;16.20;4.95;;;3.80;99.90;;;;;;5063035;28;20037;-68
2021/04/10 01:54:45;;;;;;;18.20;5.07;;;3.80;99.90;;;;;;5062810;28;20048;-67
2021/04/10 01:57:12;;;;;;;17.67;4.55;;;3.80;99.90;;;;;;5063023;28;20037;-67
2021/04/10 01:59:43;;;;;;;21.37;4.30;;;3.70;99.90;;;;;;5063100;28;20048;-66
2021/04/10 02:02:11;;;;;;;19.73;5.22;;;3.70;99.90;;;;;;5063008;28;20311;-67
2021/04/10 02:04:39;;;;;;;;;;;3.80;99.90;;;;;;5063249;28;20040;-66
2021/04/10 02:07:06;;;;;;;18.27;4.85;;;3.80;99.90;;;;;;5062602;28;20427;-67
2021/04/10 02:09:33;;;;;;;21.98;5.50;;;3.80;99.90;;;;;;5063325;28;20037;-67
2021/04/10 02:12:00;;;;;;;18.23;3.97;;;3.80;99.90;;;;;;5066940;28;20389;-68
2021/04/10 02:14:28;;;;;;;13.38;4.40;;;3.80;99.90;;;;;;5067216;28;20045;-67
2021/04/10 02:16:55;;;;;;;15.23;4.18;;;3.80;99.90;;;;;;5067167;28;20111;-67
2021/04/10 02:19:21;;;;;;;20.98;4.25;;;3.70;99.90;;;;;;5066652;28;20060;-67
2021/04/10 02:21:47;;;;;;;11.77;3.80;;;3.70;99.90;;;;;;5079325;28;20439;-67
2021/04/10 02:24:13;;;;;;;15.27;4.97;;;3.70;99.90;;;;;;5065956;28;20056;-67
2021/04/10 02:26:39;;;;;;;16.75;5.28;;;3.70;99.90;;;;;;5067066;28;20100;-67
2021/04/10 02:29:05;;;;;;;16.77;4.03;;;3.70;99.90;;;;;;5066615;28;20056;-67
2021/04/10 02:31:43;;;;;;;16.30;4.25;;;3.60;99.90;;;;;;5066693;28;20049;-67
2021/04/10 02:34:14;;;;;;;17.92;5.03;;;3.60;99.90;;;;;;5066534;28;20045;-67
2021/04/10 02:36:41;;;;;;;16.33;3.95;;;3.60;99.90;;;;;;5066489;28;20052;-67
2021/04/10 02:39:08;;;;;;;22.02;5.32;;;3.70;99.90;;;;;;5066231;28;20049;-66
2021/04/10 02:41:35;;;;;;;16.58;4.97;;;3.60;99.90;;;;;;5066602;28;20055;-67
2021/04/10 02:44:07;;;;;;;14.73;4.18;;;3.60;99.90;;;;;;5066430;28;20052;-67
2021/04/10 02:46:39;;;;;;;15.95;4.05;;;3.60;99.90;;;;;;5066362;28;20045;-67
2021/04/10 02:49:16;;;;;;;19.88;4.28;;;3.60;99.90;;;;;;5066435;28;20144;-67
2021/04/10 02:51:44;;;;;;;18.73;4.45;;;3.60;99.90;;;;;;5066130;28;20041;-67
2021/04/10 02:54:13;;;;;;;13.82;3.70;;;3.50;99.90;;;;;;5066023;28;20037;-66
2021/04/10 02:56:43;;;;;;;18.63;3.85;;;3.40;99.90;;;;;;5066387;28;20108;-66
2021/04/10 02:59:10;;;;;;;16.15;4.32;;;3.40;99.90;;;;;;5066104;28;20045;-67
2021/04/10 03:01:36;;;;;;;14.45;3.58;;;3.40;99.90;;;;;;5066271;28;20061;-67
2021/04/10 03:04:03;;;;;;;12.75;3.83;;;3.30;99.90;;;;;;5065950;28;20053;-67
2021/04/10 03:06:30;;;;;;;13.15;4.28;;;3.30;99.90;;;;;;5066241;28;20598;-67
2021/04/10 03:08:57;;;;;;;15.95;3.95;;;3.30;99.90;;;;;;5066090;28;20041;-67
2021/04/10 03:11:24;;;;;;;22.42;3.53;;;3.30;99.90;;;;;;5065608;28;20091;-68
2021/04/10 03:13:50;;;;;;;13.32;3.55;;;3.30;99.90;;;;;;5065902;28;20045;-67
2021/04/10 03:16:17;;;;;;;11.80;3.72;;;3.20;99.90;;;;;;5065710;28;20041;-67
2021/04/10 03:18:49;;;;;;;18.27;4.65;;;3.20;99.90;;;;;;5066400;28;20063;-67
2021/04/10 03:21:14;;;;;;;15.55;3.47;;;3.20;99.90;;;;;;5064446;28;20039;-68
2021/04/10 03:23:40;;;;;;;12.63;3.22;;;3.20;99.90;;;;;;5065779;28;20128;-68
2021/04/10 03:26:07;;;;;;;14.35;3.17;;;3.20;99.90;;;;;;5065084;28;20053;-67
2021/04/10 03:28:35;;;;;;;22.23;3.72;;;3.20;99.90;;;;;;5065722;28;20049;-67
2021/04/10 03:31:02;;;;;;;13.15;3.95;;;3.20;99.90;;;;;;5065650;28;20185;-67
2021/04/10 03:33:34;;;;;;;21.45;3.63;;;3.20;99.90;;;;;;5065649;28;20054;-67
2021/04/10 03:36:04;;;;;;;17.70;4.57;;;3.20;99.90;;;;;;5065514;28;20052;-67
2021/04/10 03:38:31;;;;;;;15.23;3.40;;;3.10;99.90;;;;;;5065523;28;20044;-67
2021/04/10 03:40:58;;;;;;;17.97;3.77;;;3.10;99.90;;;;;;5064824;28;20045;-67
2021/04/10 03:43:24;;;;;;;21.00;3.47;;;3.10;99.90;;;;;;5065284;28;20049;-67
2021/04/10 03:45:50;;;;;;;22.73;3.78;;;3.10;99.90;;;;;;5065277;28;20052;-66
2021/04/10 03:48:17;;;;;;;10.30;3.47;;;3.10;99.90;;;;;;5065396;28;20040;-67
2021/04/10 03:50:43;;;;;;;17.88;3.35;;;3.20;99.90;;;;;;5058936;28;20041;-67
2021/04/10 03:53:09;;;;;;;16.15;3.17;;;3.20;99.90;;;;;;5064840;28;20120;-68
2021/04/10 03:55:34;;;;;;;6.65;2.63;;;3.20;99.90;;;;;;5065085;28;20091;-67
2021/04/10 03:58:01;;;;;;;20.00;2.72;;;3.20;99.90;;;;;;5065307;28;20044;-67
2021/04/10 04:00:28;;;;;;;16.88;2.92;;;3.20;99.90;;;;;;5065027;28;20049;-68
2021/04/10 04:02:54;;;;;;;12.07;3.03;;;3.10;99.90;;;;;;5064858;28;20076;-67
2021/04/10 04:05:20;;;;;;;19.35;3.08;;;3.20;99.90;;;;;;5064966;28;20116;-67
2021/04/10 04:07:46;;;;;;;15.27;3.47;;;3.20;99.90;;;;;;5065031;28;20045;-67
2021/04/10 04:10:13;;;;;;;20.52;2.63;;;3.20;99.90;;;;;;5064370;28;20045;-67
2021/04/10 04:12:38;;;;;;;14.57;2.70;;;3.20;99.90;;;;;;5064643;28;20064;-67
2021/04/10 04:15:05;;;;;;;12.23;3.45;;;3.20;99.90;;;;;;5064830;28;20048;-67
2021/04/10 04:17:31;;;;;;;14.05;2.67;;;3.20;99.90;;;;;;5064825;28;20064;-67
2021/04/10 04:19:57;;;;;;;10.32;2.42;;;3.20;99.90;;;;;;5064596;28;20044;-67
2021/04/10 04:22:22;;;;;;;14.02;2.25;;;3.20;99.90;;;;;;5064988;28;20053;-67
2021/04/10 04:24:50;;;;;;;13.75;2.22;;;3.20;99.90;;;;;;5063967;28;20045;-68
2021/04/10 04:27:16;;;;;;;10.80;2.20;;;3.20;99.90;;;;;;5064419;28;20053;-67
2021/04/10 04:29:42;;;;;;;15.02;2.97;;;3.20;99.90;;;;;;5064480;28;20049;-67
2021/04/10 04:32:08;;;;;;;12.32;2.55;;;3.20;99.90;;;;;;5063942;28;20041;-68
2021/04/10 04:34:37;;;;;;;13.27;4.03;;;3.20;99.90;;;;;;5064859;28;20045;-67
2021/04/10 04:37:04;;;;;;;18.95;2.72;;;3.20;99.90;;;;;;5064432;28;20047;-68
2021/04/10 04:39:30;;;;;;;17.27;1.95;;;3.30;99.90;;;;;;5063716;28;20056;-67
2021/04/10 04:41:59;;;;;;;23.08;2.47;;;3.30;99.90;;;;;;5064290;28;20059;-67
2021/04/10 04:44:26;;;;;;;13.10;2.45;;;3.20;99.90;;;;;;5063909;28;20080;-67
2021/04/10 04:46:52;;;;;;;10.00;1.58;;;3.20;99.90;;;;;;5064294;28;20104;-67
2021/04/10 04:49:18;;;;;;;19.77;2.85;;;3.20;99.90;;;;;;5063577;28;20045;-68
2021/04/10 04:51:43;;;;;;;15.35;2.40;;;3.10;99.90;;;;;;5063903;28;20047;-67
2021/04/10 04:54:09;;;;;;;13.25;2.10;;;3.20;99.90;;;;;;5063897;28;20068;-67
2021/04/10 04:56:35;;;;;;;11.88;3.13;;;3.10;99.90;;;;;;5063798;28;20048;-68
2021/04/10 04:59:01;;;;;;;13.32;2.42;;;3.10;99.90;;;;;;5064240;28;20197;-68
2021/04/10 05:01:27;;;;;;;19.15;3.10;;;3.10;99.90;;;;;;5064049;28;20049;-68
2021/04/10 05:03:53;;;;;;;19.35;2.20;;;3.10;99.90;;;;;;5063687;28;20071;-66
2021/04/10 05:06:19;;;;;;;9.77;1.95;;;3.10;99.90;;;;;;5063680;28;20067;-67
2021/04/10 05:08:44;;;;;;;9.48;2.97;;;3.10;99.90;;;;;;5063619;28;20039;-67
2021/04/10 05:11:11;;;;;;;8.88;1.80;;;3.10;99.90;;;;;;5063310;28;20049;-67
2021/04/10 05:13:36;;;;;;;13.15;2.67;;;3.10;99.90;;;;;;5063836;28;20410;-67
2021/04/10 05:16:02;;;;;;;7.80;2.53;;;3.10;99.90;;;;;;5063654;28;20056;-67
2021/04/10 05:18:28;;;;;;;13.80;2.97;;;3.10;99.90;;;;;;5063875;28;20060;-68
2021/04/10 05:20:54;;;;;;;18.02;2.63;;;3.10;99.90;;;;;;5063548;28;20155;-67
2021/04/10 05:23:23;;;;;;;14.55;2.33;;;3.10;99.90;;;;;;5063871;28;20459;-67
2021/04/10 05:25:50;;;;;;;13.32;2.33;;;3.10;99.90;;;;;;5062981;28;20045;-67
2021/04/10 05:28:16;;;;;;;13.18;2.35;;;3.10;99.90;;;;;;5063657;28;20041;-67
2021/04/10 05:30:42;;;;;;;9.50;2.42;;;3.10;99.90;;;;;;5063273;28;20075;-68
2021/04/10 05:33:08;;;;;;;13.75;3.00;;;3.10;99.90;;;;;;5063387;28;20100;-67
2021/04/10 05:35:34;;;;;;;10.55;3.05;;;3.20;99.90;;;;;;5063456;28;20044;-67
2021/04/10 05:38:01;;;;;;;8.93;1.88;;;3.20;99.90;;;;;;5063495;28;20041;-67
2021/04/10 05:40:27;;;;;;;11.07;2.15;;;3.20;99.90;;;;;;5062665;28;20049;-67
2021/04/10 05:42:53;;;;;;;10.30;2.85;;;3.20;99.90;;;;;;5063172;28;20048;-67
2021/04/10 05:45:18;;;;;;;11.02;2.55;;;3.20;99.90;;;;;;5062342;28;20051;-67
2021/04/10 05:47:44;;;;;;;15.07;2.05;;;3.20;99.90;;;;;;5063407;28;20041;-67
2021/04/10 05:50:11;;;;;;;9.65;2.42;;;3.20;99.90;;;;;;5063380;28;20044;-68
2021/04/10 05:52:36;;;;;;;13.13;2.67;;;3.20;99.90;;;;;;5062682;28;20045;-67
2021/04/10 05:55:04;;;;;;;9.68;2.15;;;3.30;99.90;;;;;;5062836;28;20037;-68
2021/04/10 05:57:30;;;;;;;;;;;3.30;99.90;;;;;;5063709;28;20144;-67
2021/04/10 05:59:56;;;;;;;15.68;3.08;;;3.30;99.90;;;;;;5063203;28;19921;-68
2021/04/10 06:02:22;;;;;;;15.30;2.67;;;3.40;99.90;;;;;;5062479;28;20422;-67
2021/04/10 06:04:47;;;;;;;11.57;1.52;;;3.40;99.90;;;;;;5063376;28;20045;-67
2021/04/10 06:07:13;;;;;;;14.13;2.72;;;3.50;99.90;;;;;;5063066;28;20041;-68
2021/04/10 06:09:39;;;;;;;12.82;2.30;;;3.50;99.90;;;;;;5062242;28;20504;-68
2021/04/10 06:12:05;;;;;;;4.38;1.42;;;3.50;99.90;;;;;;5063086;28;20045;-67
2021/04/10 06:14:31;;;;;;;11.10;1.90;;;3.60;99.90;;;;;;5062930;28;20067;-67
2021/04/10 06:16:57;;;;;;;10.82;2.90;;;3.60;99.90;;;;;;5062655;28;20045;-67
2021/04/10 06:19:23;;;;;;;9.38;1.60;;;3.70;99.90;;;;;;5062779;28;20109;-67
2021/04/10 06:21:48;;;;;;;11.65;2.20;;;3.70;99.90;;;;;;5062906;28;20059;-68
2021/04/10 06:24:15;;;;;;;8.40;1.50;;;3.70;99.90;;;;;;5062294;28;20107;-69
2021/04/10 06:26:45;;;;;;;9.50;2.53;;;3.80;99.90;;;;;;5062804;28;20068;-67
2021/04/10 06:29:12;;;;;;;15.20;1.85;;;3.80;99.90;;;;;;5062598;28;20448;-67
2021/04/10 06:31:38;;;;;;;9.02;1.88;;;3.90;99.90;;;;;;5062902;28;20053;-68
2021/04/10 06:34:04;;;;;;;14.15;1.80;;;3.80;99.90;;;;;;5062529;28;20041;-68
2021/04/10 06:36:30;;;;;;;9.73;1.65;;;3.90;99.90;;;;;;5062948;28;20051;-67
2021/04/10 06:38:56;;;;;;;9.57;1.35;;;4.00;99.90;;;;;;5062529;28;20071;-67
2021/04/10 06:41:23;;;;;;;7.78;2.22;;;4.00;99.90;;;;;;5061958;28;20059;-68
2021/04/10 06:43:49;;;;;;;12.65;1.90;;;4.10;99.90;;;;;;5062919;28;20045;-68
2021/04/10 06:46:15;;;;;;;9.70;1.55;;;4.10;99.90;;;;;;5062312;28;20045;-68
2021/04/10 06:48:43;;;;;;;8.38;1.80;;;4.20;99.90;;;;;;5062934;28;20041;-67
2021/04/10 06:51:10;;;;;;;11.57;1.92;;;4.20;99.90;;;;;;5059551;28;20041;-67
2021/04/10 06:53:43;;;;;;;13.43;1.92;;;4.30;99.90;;;;;;5062545;28;20056;-67
2021/04/10 06:56:10;;;;;;;11.38;2.13;;;4.30;99.90;;;;;;5064164;28;20045;-68
2021/04/10 06:59:08;;;;;;;10.50;2.40;;;4.40;99.90;;;;;;5066419;28;20045;-68
2021/04/10 07:01:34;;;;;;;13.85;2.20;;;4.40;99.90;;;;;;5060278;28;20119;-67
2021/04/10 07:04:00;;;;;;;12.70;2.90;;;4.50;99.90;;;;;;5065961;28;20053;-68
2021/04/10 07:06:26;;;;;;;13.00;2.90;;;4.70;99.90;;;;;;5066016;28;20104;-67
2021/04/10 07:08:53;;;;;;;7.78;1.70;;;4.80;99.90;;;;;;5065955;28;20056;-68
2021/04/10 07:11:20;;;;;;;8.45;2.03;;;4.80;99.90;;;;;;5065732;28;20060;-68
2021/04/10 07:13:46;;;;;;;13.80;2.83;;;4.90;99.90;;;;;;5066086;28;20049;-68
2021/04/10 07:16:12;;;;;;;15.98;1.98;;;5.00;99.90;;;;;;5066118;28;20037;-67
2021/04/10 07:18:38;;;;;;;9.65;1.55;;;5.00;99.90;;;;;;5065912;28;20133;-68
2021/04/10 07:21:26;;;;;;;13.57;1.98;;;5.00;99.90;;;;;;5065494;28;20056;-67
2021/04/10 07:23:54;;;;;;;14.18;2.17;;;5.10;99.90;;;;;;5065601;28;20504;-68
2021/04/10 07:26:40;;;;;;;9.52;1.73;;;5.20;99.90;;;;;;5065782;28;20037;-68
2021/04/10 07:29:28;;;;;;;13.77;1.60;;;5.30;99.90;;;;;;5065430;28;20045;-68
2021/04/10 07:31:54;;;;;;;9.25;2.03;;;5.50;99.90;;;;;;5058075;28;20051;-68
2021/04/10 07:34:21;;;;;;;8.80;2.35;;;5.60;99.90;;;;;;5066142;28;20040;-69
2021/04/10 07:37:00;;;;;;;7.90;1.17;;;5.50;99.90;;;;;;5065841;28;20499;-68
2021/04/10 07:39:27;;;;;;;6.43;1.67;;;5.60;99.90;;;;;;5064654;28;20091;-69
2021/04/10 07:42:03;;;;;;;9.10;1.60;;;5.50;99.90;;;;;;5065186;28;20076;-67
2021/04/10 07:44:41;;;;;;;11.00;1.95;;;5.60;99.90;;;;;;5064052;28;20493;-68
2021/04/10 07:47:09;;;;;;;10.70;1.80;;;5.60;99.90;;;;;;5057487;28;20049;-68
2021/04/10 07:49:35;;;;;;;6.03;1.42;;;5.60;99.90;;;;;;5063638;28;20045;-68
2021/04/10 07:52:04;;;;;;;4.97;1.60;;;5.80;99.90;;;;;;5065359;28;20072;-67
2021/04/10 07:54:32;;;;;;;3.15;1.27;;;6.00;99.90;;;;;;5064437;28;20052;-67
2021/04/10 07:57:07;;;;;;;11.80;1.50;;;6.10;99.90;;;;;;5065312;28;20100;-68
2021/04/10 07:59:53;;;;;;;5.35;1.48;;;6.00;99.00;;;;;;5065197;28;20119;-67
2021/04/10 08:02:21;;;;;;;5.25;1.40;;;5.80;98.20;;;;;;5052156;28;21123;-67
2021/04/10 08:04:58;;;;;;;3.97;0.77;;;5.90;98.60;;;;;;5065465;28;20053;-67
2021/04/10 08:07:25;;;;;;;5.78;1.50;;;5.80;97.30;;;;;;5051593;28;20041;-67
2021/04/10 08:10:00;;;;;;;6.97;1.27;;;5.90;98.40;;;;;;5064318;28;20041;-68
2021/04/10 08:12:31;;;;;;;7.25;1.60;;;6.00;97.80;;;;;;5051647;28;20098;-67
2021/04/10 08:14:59;;;;;;;7.50;2.00;;;6.00;98.50;;;;;;5064842;28;20049;-67
2021/04/10 08:17:32;;;;;;;10.93;1.50;;;6.10;98.50;;;;;;5065094;28;20071;-67
2021/04/10 08:20:20;;;;;;;10.57;2.10;;;6.50;99.60;;;;;;5080243;28;20151;-67
2021/04/10 08:22:46;;;;;;;5.38;1.77;;;6.60;98.20;;;;;;5064686;28;20119;-67
2021/04/10 08:25:13;;;;;;;7.95;1.63;;;6.50;97.10;;;;;;5064034;28;20048;-67
2021/04/10 08:27:39;;;;;;;9.40;1.30;;;6.60;97.00;;;;;;5064774;28;20045;-67
2021/04/10 08:30:08;;;;;;;2.28;0.82;;;6.60;96.60;;;;;;5064736;28;20048;-67
2021/04/10 08:32:34;;;;;;;4.60;1.10;;;6.60;96.40;;;;;;5064635;28;20041;-68
2021/04/10 08:34:59;;;;;;;8.85;1.48;;;6.60;96.50;;;;;;5064370;28;20041;-67
2021/04/10 08:37:27;;;;;;;4.47;1.42;;;6.60;96.10;;;;;;5064182;28;20045;-67
2021/04/10 08:39:56;;;;;;;3.03;1.10;;;6.40;94.60;;;;;;5063726;28;20088;-67
2021/04/10 08:42:25;;;;;;;8.82;2.00;;;6.50;94.90;;;;;;5064166;28;20045;-67
2021/04/10 08:44:52;;;;;;;7.60;1.85;;;6.50;95.50;;;;;;5064259;28;20045;-68
2021/04/10 08:47:19;;;;;;;4.35;0.93;;;6.60;96.00;;;;;;5064188;28;20079;-68
2021/04/10 08:49:48;;;;;;;5.85;2.10;;;6.60;94.40;;;;;;5063857;28;20152;-67
2021/04/10 08:52:20;;;;;;;14.32;1.80;;;6.50;94.30;;;;;;5063901;28;20045;-67
2021/04/10 08:54:47;;;;;;;10.65;1.38;;;6.80;96.20;;;;;;5063418;28;20087;-67
2021/04/10 08:57:14;;;;;;;4.88;1.10;;;6.90;95.80;;;;;;5063969;28;20045;-67
2021/04/10 08:59:45;;;;;;;6.23;1.00;;;7.10;95.50;;;;;;5064103;28;20049;-68
2021/04/10 09:02:15;;;;;;;6.72;2.15;;;7.30;96.70;;;;;;5063035;28;20052;-68
2021/04/10 09:05:00;;;;;;;9.15;1.55;;;7.10;94.20;;;;;;5064099;28;20140;-68
2021/04/10 09:07:47;;;;;;;9.07;1.98;;;6.90;93.20;;;;;;5063648;28;20046;-67
2021/04/10 09:10:39;;;;;;;8.95;1.65;;;6.80;93.80;;;;;;5062802;28;20044;-69
2021/04/10 09:13:04;;;;;;;4.97;1.08;;;6.70;93.00;;;;;;5063647;28;20048;-68
2021/04/10 09:15:32;;;;;;;6.32;1.25;;;6.80;93.10;;;;;;5063322;28;20040;-68
2021/04/10 09:18:02;;;;;;;9.05;1.67;;;7.00;93.50;;;;;;5063706;28;20528;-68
2021/04/10 09:20:47;;;;;;;3.30;1.80;;;7.20;92.70;;;;;;5062188;28;20041;-68
2021/04/10 09:23:22;;;;;;;10.63;1.55;;;7.00;92.20;;;;;;5062156;28;20045;-68
2021/04/10 09:26:12;;;;;;;12.35;1.77;;;6.80;93.30;;;;;;5062409;28;20087;-68
2021/04/10 09:29:06;;;;;;;10.05;2.35;;;7.40;93.90;;;;;;5057067;28;20078;-68
2021/04/10 09:31:49;;;;;;;8.57;1.33;;;7.40;92.10;;;;;;4994892;28;20054;-67
2021/04/10 09:34:43;;;;;;;6.63;1.42;;;7.50;92.70;;;;;;5001161;28;20046;-68
2021/04/10 09:37:10;;;;;;;12.52;1.25;;;7.50;91.90;;;;;;5001568;28;20649;-68
2021/04/10 09:40:05;;;;;;;2.97;1.23;;;7.30;91.60;;;;;;5001177;28;20054;-68
2021/04/10 09:45:09;;;;;;;9.25;1.73;;;7.50;92.10;;;;;;5001088;28;20054;-67
2021/04/10 09:50:26;;;;;;;6.70;1.35;;;7.50;90.80;;;;;;5001294;28;20069;-68
2021/04/10 09:53:02;;;;;;;8.15;1.20;;;7.50;90.90;;;;;;5001200;28;20046;-68
2021/04/10 09:55:29;;;;;;;6.55;1.40;;;7.50;90.40;;;;;;4993063;28;20059;-67
2021/04/10 09:58:03;;;;;;;8.07;2.35;;;7.30;90.60;;;;;;5001369;28;20054;-68
2021/04/10 10:00:37;;;;;;;6.80;1.02;;;7.20;90.70;;;;;;4995249;28;20050;-68
2021/04/10 10:03:06;;;;;;;7.72;1.48;;;7.40;90.70;;;;;;4994415;28;20058;-67
2021/04/10 10:05:42;;;;;;;6.20;1.27;;;7.70;91.30;;;;;;5000882;28;20050;-68
2021/04/10 10:08:14;;;;;;;7.32;1.35;;;7.60;91.00;;;;;;5019136;28;20065;-68
2021/04/10 10:10:47;;;;;;;5.00;1.85;;;7.90;90.50;;;;;;5062071;28;20045;-68
2021/04/10 10:13:18;;;;;;;6.85;1.52;;;7.60;88.60;;;;;;5063333;28;20675;-68
2021/04/10 10:15:47;;;;;;;4.55;1.15;;;7.30;89.00;;;;;;5062843;28;20523;-68
2021/04/10 10:18:20;;;;;;;;;;;7.30;87.70;;;;;;5063264;28;20044;-67
2021/04/10 10:21:11;;;;;;;7.63;1.63;;;7.60;88.80;;;;;;5062488;28;19947;-67
2021/04/10 10:23:48;;;;;;;9.35;2.03;;;7.50;85.70;;;;;;5062658;28;20056;-67
2021/04/10 10:26:16;;;;;;;9.82;1.45;;;7.60;87.80;;;;;;5062301;28;20044;-68
2021/04/10 10:28:44;;;;;;;7.97;1.10;;;8.00;89.40;;;;;;5062745;28;20041;-69
2021/04/10 10:31:13;;;;;;;;;;;8.10;87.20;;;;;;5064991;28;20139;-68
2021/04/10 10:33:40;;;;;;;3.10;0.70;;;8.20;85.20;;;;;;5066708;28;19952;-68
2021/04/10 10:36:07;;;;;;;6.43;1.35;;;8.00;83.40;;;;;;5066364;28;20086;-68
2021/04/10 10:38:39;;;;;;;8.83;2.00;;;8.00;84.80;;;;;;5066481;28;20468;-68
2021/04/10 10:41:06;;;;;;;4.57;1.27;;;8.00;85.00;;;;;;5066149;28;20358;-68
2021/04/10 10:43:32;;;;;;;5.43;1.83;;;8.10;84.40;;;;;;5066821;28;20041;-69
2021/04/10 10:46:00;;;;;;;13.43;1.50;;;8.10;84.20;;;;;;5066330;28;20049;-68
2021/04/10 10:48:36;;;;;;;5.80;1.50;;;8.50;86.00;;;;;;5066616;28;20045;-68
2021/04/10 10:51:07;;;;;;;5.95;1.30;;;8.40;84.00;;;;;;5066024;28;20152;-67
2021/04/10 10:53:36;;;;;;;3.70;1.60;;;8.40;84.40;;;;;;5066275;28;20072;-67
2021/04/10 10:56:02;;;;;;;5.07;1.42;;;8.50;81.80;;;;;;5066087;28;20045;-68
2021/04/10 10:58:37;;;;;;;7.93;1.38;;;8.10;83.90;;;;;;5065913;28;20386;-68
2021/04/10 11:01:12;;;;;;;2.75;1.00;;;8.50;85.20;;;;;;5066172;28;20045;-69
2021/04/10 11:03:43;;;;;;;1.70;0.98;;;8.30;84.00;;;;;;5065945;28;20049;-68
2021/04/10 11:06:09;;;;;;;6.93;1.40;;;8.10;84.80;;;;;;5065734;28;20044;-69
2021/04/10 11:08:35;;;;;;;9.40;1.48;;;8.10;83.90;;;;;;5065917;28;20097;-68
2021/04/10 11:11:01;;;;;;;4.53;1.30;;;8.10;85.10;;;;;;5065472;28;20045;-68
2021/04/10 11:13:27;;;;;;;7.03;1.90;;;8.50;86.90;;;;;;5065961;28;20064;-69
2021/04/10 11:15:53;;;;;;;5.78;1.35;;;8.60;83.60;;;;;;5065685;28;20051;-68
2021/04/10 11:18:30;;;;;;;4.05;0.93;;;8.50;82.40;;;;;;5065856;28;20120;-69
2021/04/10 11:21:17;;;;;;;6.30;1.30;;;8.20;82.30;;;;;;5051906;28;20048;-68
2021/04/10 11:24:06;;;;;;;4.97;1.00;;;8.10;83.70;;;;;;5065881;28;20049;-68
2021/04/10 11:26:38;;;;;;;;;;;8.40;83.50;;;;;;5066724;28;20056;-67
2021/04/10 11:29:19;;;;;;;3.53;1.85;;;8.40;83.00;;;;;;5065781;28;19950;-68
2021/04/10 11:32:02;;;;;;;6.50;1.38;;;8.50;83.10;;;;;;5065435;28;20045;-69
2021/04/10 11:34:36;;;;;;;4.85;1.45;;;8.50;80.30;;;;;;5065428;28;20044;-68
2021/04/10 11:37:03;;;;;;;2.67;1.00;;;8.60;79.40;;;;;;5065967;28;20045;-68
2021/04/10 11:39:30;;;;;;;9.50;2.03;;;8.70;80.10;;;;;;5064669;28;20493;-68
2021/04/10 11:41:57;;;;;;;5.25;1.45;;;8.80;81.50;;;;;;5064610;28;20073;-69
2021/04/10 11:44:24;;;;;;;4.85;1.20;;;8.80;78.30;;;;;;5065267;28;20055;-69
2021/04/10 11:47:00;;;;;;;2.20;1.02;;;8.80;77.20;;;;;;5065472;28;20047;-68
2021/04/10 11:49:27;;;;;;;3.25;1.17;;;8.50;72.90;;;;;;5065125;28;20116;-68
2021/04/10 11:51:53;;;;;;;6.05;1.40;;;8.60;75.40;;;;;;5080423;28;20045;-68
2021/04/10 11:54:33;;;;;;;5.05;1.15;;;8.70;77.00;;;;;;5064715;28;20049;-69
2021/04/10 11:57:02;;;;;;;2.65;0.93;;;8.70;74.30;;;;;;5065402;28;20444;-68
2021/04/10 11:59:45;;;;;;;5.18;1.20;;;8.10;73.30;;;;;;5065078;28;20084;-69
2021/04/10 12:02:23;;;;;;;2.33;1.02;;;8.60;75.20;;;;;;5064888;28;20040;-69
2021/04/10 12:04:49;;;;;;;7.45;1.90;;;8.20;71.70;;;;;;5064952;28;20137;-68
2021/04/10 12:07:15;;;;;;;3.90;1.00;;;8.20;74.50;;;;;;5064500;28;20048;-68
2021/04/10 12:09:42;;;;;;;8.38;1.63;;;8.40;76.30;;;;;;5064659;28;20049;-68
2021/04/10 12:12:11;;;;;;;3.95;1.30;;;8.50;75.50;;;;;;5065122;28;20072;-69
2021/04/10 12:14:41;;;;;;;4.30;1.15;;;8.50;72.30;;;;;;5064797;28;20045;-68
2021/04/10 12:17:07;;;;;;;4.65;1.35;;;8.60;73.30;;;;;;5064567;28;20075;-68
2021/04/10 12:19:34;;;;;;;3.80;1.15;;;9.10;69.70;;;;;;5064566;28;20559;-68
2021/04/10 12:22:00;;;;;;;7.15;1.10;;;9.30;70.10;;;;;;5064529;28;20040;-68
2021/04/10 12:24:26;;;;;;;4.45;0.90;;;9.30;70.50;;;;;;5064616;28;20053;-68
2021/04/10 12:26:51;;;;;;;2.13;1.00;;;9.40;69.00;;;;;;5064733;28;20095;-69
2021/04/10 12:29:17;;;;;;;4.75;1.30;;;8.90;69.20;;;;;;5064546;28;20041;-69
2021/04/10 12:31:43;;;;;;;4.18;1.13;;;9.30;70.60;;;;;;5060944;28;20099;-69
2021/04/10 12:34:09;;;;;;;5.15;0.80;;;9.40;68.50;;;;;;5064102;28;20167;-70
2021/04/10 12:36:35;;;;;;;5.07;1.20;;;9.10;67.70;;;;;;5064938;28;20064;-69
2021/04/10 12:39:01;;;;;;;5.05;1.10;;;9.00;67.00;;;;;;5063968;28;20037;-69
2021/04/10 12:41:27;;;;;;;3.30;0.98;;;8.70;67.30;;;;;;5064205;28;20049;-69
2021/04/10 12:43:53;;;;;;;3.35;1.25;;;9.20;66.60;;;;;;5064252;28;20202;-69
2021/04/10 12:46:19;;;;;;;3.47;1.08;;;9.00;66.90;;;;;;5063549;28;20044;-70
2021/04/10 12:48:46;;;;;;;4.03;0.93;;;8.90;66.30;;;;;;5065316;28;20132;-69
2021/04/10 12:51:12;;;;;;;6.97;0.98;;;9.10;67.10;;;;;;5063964;28;20075;-69
2021/04/10 12:53:39;;;;;;;5.82;1.00;;;8.90;67.00;;;;;;5063649;28;20124;-69
2021/04/10 12:56:05;;;;;;;7.55;1.08;;;8.80;67.50;;;;;;5063528;28;20049;-70
2021/04/10 12:58:31;;;;;;;3.92;1.40;;;9.10;67.40;;;;;;5063706;28;20412;-69
2021/04/10 13:00:57;;;;;;;2.17;0.80;;;8.90;66.20;;;;;;5064124;28;20056;-69
2021/04/10 13:03:24;;;;;;;5.78;1.08;;;9.00;66.80;;;;;;5063501;28;20057;-69
2021/04/10 13:05:50;;;;;;;1.08;0.80;;;8.70;66.10;;;;;;5063610;28;20071;-69
2021/04/10 13:08:16;;;;;;;3.85;1.20;;;8.60;67.40;;;;;;5063875;28;20041;-69